Main page
METAR-TAF:

METAR-TAF

Airports :

Istrana Air Base

Treviso, Italy

latitude: 45-41N, longitude: 012-06E, elevation: 45 m

Current weather observation

The report was made 22 minutes ago, at 19:55 UTC
Wind 3 kt from the North
Temperature 16°C
Humidity 88%
Pressure 1022 hPa
Visibility 10 km or more
no clouds below 1500 m and no cumulonimbus

METAR: LIPS 201955Z 01003KT CAVOK 16/14 Q1022 RMK SKC VIS MIN 9999 WIND THR26 31002KT WIND THR08 01003KT BLU

Time: 22:17 (20:17 UTC)

Forecast

The report was made 3 hours and 17 minutes ago, at 17:00 UTC
Forecast valid from 20 at 18 UTC to 21 at 03 UTC
Wind 3 kt from the Northeast
Visibility: 8000 m
Becoming
from 20 at 22 UTC to 20 at 24 UTC
Visibility: 5000 m
mist

TAF: LIPS 201700Z 2018/2103 05003KT 8000 NSC BECMG 2022/2024 5000 BR

Weather observations and forecasts of more than 4000 airports (METAR and TAF reports).

The available stations are represented by yellow and red dots on the map.

Hover mouse over dot to see the name of the station.

Then click to see weather observations and forecasts.

To change the map : click on the green buttons with a black cross to zoom in, on the green button with a dash to zoom out, or on the green arrows for adjacent maps.


METAR-TAF: